BANAK/LAKSELV_(AFB) current weather conditions

sailwx.info

Wind from 320 at 26 knots gusting 38

Air temperature -5.0° C
Visibility: greater than 2.2 NM
Dewpoint -7.0° C
Present weather: Light snow showers.

Last reported at 2020-Jan-22 12:50 UTC.
Time now 2020-Jan-22 14:17 UTC

Location: N 70°04' E 024°59'.
View on Google Maps.

See reports from other nearby stations

  
Tides and Currents Weather Stations Pressure Air Temp Water Temp Dewpoint Dewpoint Depression Visibility Wind Speed Wind Dir Waves Ship Positions
date/time (UTC)wind fromknots sea level pressurealtimeterstation pressurevisibilityair tempwater tempwave heightnotes
2020-Jan-22 12:50 320 26 gusting 38 2.2-5.0 Light snow showers.
2020-Jan-22 12:20 320 25 2.7-5.0 Light snow showers.
2020-Jan-22 11:50 320 24 5.4-5.0 Light low drifting snow.
2020-Jan-22 11:20 320 25 5.4-5.0
2020-Jan-22 10:50 320 22 5.4-5.0 Light low drifting snow.
2020-Jan-22 10:20 320 27 gusting 36 2.7-5.0 Blowing snow.
2020-Jan-22 09:50 320 24 5.4-5.0 Blowing snow.
2020-Jan-22 09:20 320 22 5.4-5.0 Showers in the vicinity.
2020-Jan-22 08:50 320 20 3.8-5.0 Light snow.
2020-Jan-22 08:20 330 20 2.7-5.0 Light snow.
2020-Jan-22 07:50 320 20 5.4-5.0 Light snow.
2020-Jan-22 07:20 310 19 5.4-5.0 Light snow.
2020-Jan-22 06:50 330 20 5.4-5.0 Light snow.
2020-Jan-22 06:20 320 22 2.7-5.0 Light snow.
2020-Jan-22 05:50 320 15 2.7-5.0 Light snow.
2020-Jan-22 05:20 330 15 5.4-5.0 Showers in the vicinity.
2020-Jan-22 04:50 340 17 5.4-5.0 Light snow.
2020-Jan-22 04:20 340 18 4.3-5.0 Light snow.
2020-Jan-22 03:50 330 21 1.4-4.0 Light snow.
2020-Jan-22 03:20 340 19 2.1-4.0 Light snow.
2020-Jan-22 02:50 320 20 3.8-3.0 Light snow.
2020-Jan-22 02:20 330 20 4.3-3.0 Light snow.
2020-Jan-22 01:50 330 22 1.2-3.0 Light snow.
2020-Jan-22 01:20 340 21 5.4-3.0
2020-Jan-22 00:50 340 20 5.4-3.0
2020-Jan-22 00:20 330 20 5.4-3.0
2020-Jan-21 23:50 350 19 5.4-2.0
2020-Jan-21 23:20 340 17 5.4-2.0
2020-Jan-21 22:50 360 22 5.4-2.0 Showers in the vicinity.
2020-Jan-21 22:20 340 20 2.6-2.0 Light snow.
2020-Jan-21 21:50 350 20 5.4-1.0 Light snow.
2020-Jan-21 21:20 360 20 5.4-1.0 Light snow.
2020-Jan-21 20:50 350 19 4.9-1.0 Light snow.
2020-Jan-21 20:20 340 17 4.3-1.0 Light snow.
2020-Jan-21 19:50 360 20 1.1-0.0 Snow.
2020-Jan-21 19:20 360 18 2.4-0.0 Light snow.
2020-Jan-21 18:50 300 29 0.6-0.0 Snow. Blowing snow.
2020-Jan-21 18:20 280 28 gusting 41 1.2 1.0 Light snow. Blowing snow.
2020-Jan-21 17:50 280 20 gusting 41 5.4 1.0 Blowing snow.
2020-Jan-21 17:20 280 29 gusting 41 2.0-0.0 Blowing snow.
2020-Jan-21 16:50 280 22 gusting 34 5.4 1.0 Blowing snow.
2020-Jan-21 16:20 260 13 5.4-0.0
2020-Jan-21 15:50 280 13 5.4-0.0
2020-Jan-21 15:20 270 18 1.5-0.0 Light snow.
2020-Jan-21 14:50 280 17 1.3 1.0 Light snow. Blowing snow.
2020-Jan-21 14:20 270 14 gusting 27 5.4-0.0 Light snow. Blowing snow.
2020-Jan-21 13:50 260 15 gusting 26 5.4-0.0 Blowing snow. Showers in the vicinity.
2020-Jan-21 13:20 270 15 gusting 28 5.4-0.0 Light snow.
2020-Jan-21 12:50 260 20 0.6-0.0 Snow showers.
2020-Jan-21 12:20 270 18 1.1 1.0 Light snow.
2020-Jan-21 11:50 270 20 gusting 35 2.7 1.0 Light snow.
2020-Jan-21 11:20 260 20 gusting 31 5.4 1.0 Showers in the vicinity.
2020-Jan-21 10:50 250 22 5.4-0.0 Showers in the vicinity.
2020-Jan-21 10:20 260 20 gusting 32 2.5-0.0 Light snow.
2020-Jan-21 09:50 260 13 gusting 24 5.4 1.0 Showers in the vicinity.
2020-Jan-21 09:20 270 20 5.4 1.0 Showers in the vicinity.
2020-Jan-21 08:20 270 20 gusting 31 5.4 1.0
2020-Jan-21 07:50 280 19 5.4 1.0
2020-Jan-21 07:20 300 17 2.2-0.0 Light snow.
2020-Jan-21 06:50 280 21 5.4 2.0 Rain showers.
2020-Jan-21 06:20 270 20 5.4 2.0
2020-Jan-21 05:50 260 20 gusting 31 0.9 1.0 Light snow.
2020-Jan-21 05:20 250 19 5.4 3.0
2020-Jan-21 04:50 250 17 5.4 2.0
2020-Jan-21 04:20 250 17 5.4 2.0
2020-Jan-21 03:50 170 5 gusting 17 2.7-0.0 Light snow.
2020-Jan-21 03:20 3.2-0.0 Light snow.
2020-Jan-21 02:50 150 2 3.8-0.0 Light snow.
2020-Jan-21 02:20 270 13 1.1 1.0 Light snow.
2020-Jan-21 01:50 250 13 0.5-0.0 Snow.
2020-Jan-21 01:20 260 17 gusting 27 5.4 2.0 Light rain.
2020-Jan-21 00:50 270 18 5.4 2.0
2020-Jan-21 00:20 280 25 5.4 3.0
2020-Jan-20 23:50 270 28 gusting 45 5.4 2.0
2020-Jan-20 23:20 280 28 5.4 3.0
2020-Jan-20 22:50 280 32 5.4 3.0 Light rain.
2020-Jan-20 22:20 270 8 1.9 3.0 Light drizzle snow.
2020-Jan-20 21:50 270 13 5.4 4.0
2020-Jan-20 21:20 260 20 5.4 4.0 Light rain.
2020-Jan-20 20:50 160 5 5.4 1.0 Light snow.
2020-Jan-20 20:20 160 13 5.4 2.0 Light snow.
2020-Jan-20 19:50 150 14 5.4-0.0 Light snow.
2020-Jan-20 19:20 140 15 5.4-1.0
2020-Jan-20 18:50 160 17 5.4-2.0
2020-Jan-20 18:20 170 17 5.4-2.0
2020-Jan-20 17:50 160 15 5.4-2.0
2020-Jan-20 17:20 150 13 5.4-3.0
2020-Jan-20 16:50 160 14 5.4-3.0
2020-Jan-20 16:20 180 13 5.4-4.0
2020-Jan-20 15:50 180 13 5.4-3.0
2020-Jan-20 15:20 180 14 5.4-3.0
2020-Jan-20 14:50 150 8 5.4-3.0
2020-Jan-20 14:20 180 14 5.4-3.0